Time;durP1;ratioP1;P1;durP2;ratioP2;P2;SDS_P1;SDS_P2;PMS_P1;PMS_P2;Temp;Humidity;BMP_temperature;BMP_pressure;BME280_temperature;BME280_humidity;BME280_pressure;Samples;Min_cycle;Max_cycle;Signal;HPM_P1;HPM_P2
2023/10/30 00:02:19;;;;;;;9.10;5.40;;;;;;;12.42;86.60;99089.06;130671;1254;109018;-76
2023/10/30 00:05:25;;;;;;;10.20;6.00;;;;;;;12.39;86.49;99090.56;130611;1261;108567;-77
2023/10/30 00:08:31;;;;;;;10.80;5.30;;;;;;;12.36;86.66;99088.29;130664;1260;107682;-78
2023/10/30 00:11:36;;;;;;;14.30;7.60;;;;;;;12.34;86.69;99093.16;130731;1254;107217;-77
2023/10/30 00:14:42;;;;;;;13.70;5.20;;;;;;;12.35;86.76;99095.19;130666;1259;107640;-77
2023/10/30 00:17:48;;;;;;;9.60;6.00;;;;;;;12.37;86.80;99096.23;130641;1260;108617;-76
2023/10/30 00:20:53;;;;;;;9.50;5.50;;;;;;;12.38;86.81;99099.25;130635;1260;108614;-77
2023/10/30 00:23:59;;;;;;;8.60;5.40;;;;;;;12.39;86.67;99101.67;130632;1255;108715;-77
2023/10/30 00:27:05;;;;;;;11.90;5.20;;;;;;;12.37;86.68;99097.80;130654;1261;108009;-77
2023/10/30 00:30:13;;;;;;;11.80;6.30;;;;;;;12.34;86.69;99104.15;130617;1259;107728;-77
2023/10/30 00:33:18;;;;;;;11.30;6.00;;;;;;;12.31;86.78;99104.66;130733;1260;106732;-77
2023/10/30 00:36:24;;;;;;;9.10;5.10;;;;;;;12.29;86.73;99101.59;130522;1254;108873;-77
2023/10/30 00:39:32;;;;;;;9.70;5.50;;;;;;;12.28;86.83;99105.08;130595;1258;108987;-77
2023/10/30 00:42:37;;;;;;;8.60;5.70;;;;;;;12.27;86.86;99104.29;130654;1259;106600;-77
2023/10/30 00:45:43;;;;;;;10.00;6.30;;;;;;;12.25;86.79;99098.44;130516;1261;108376;-77
2023/10/30 00:48:49;;;;;;;11.10;5.70;;;;;;;12.20;86.86;99090.66;130578;1259;107620;-77
2023/10/30 00:51:55;;;;;;;9.40;5.80;;;;;;;12.15;86.87;99089.67;130732;1256;106833;-77
2023/10/30 00:55:00;;;;;;;8.80;5.50;;;;;;;12.12;87.08;99083.98;130596;1259;107751;-77
2023/10/30 00:58:07;;;;;;;9.10;5.40;;;;;;;12.12;87.05;99082.23;130593;1259;108905;-77
2023/10/30 01:01:17;;;;;;;9.90;5.40;;;;;;;12.13;87.03;99074.27;130716;1254;108114;-76
2023/10/30 01:04:22;;;;;;;10.90;5.80;;;;;;;12.10;86.98;99072.70;130581;1254;107206;-77
2023/10/30 01:07:28;;;;;;;9.90;5.40;;;;;;;12.05;87.01;99077.77;130616;1259;108456;-76
2023/10/30 01:10:34;;;;;;;10.30;6.50;;;;;;;12.01;87.08;99101.59;130607;1257;107294;-76
2023/10/30 01:13:39;;;;;;;8.20;5.30;;;;;;;11.94;87.09;99123.61;130691;1259;106558;-76
2023/10/30 01:16:45;;;;;;;7.80;5.40;;;;;;;11.88;87.22;99124.58;130615;1254;109484;-76
2023/10/30 01:19:51;;;;;;;12.10;6.80;;;;;;;11.84;87.37;99124.54;130610;1259;106341;-78
2023/10/30 01:22:56;;;;;;;9.90;6.40;;;;;;;11.83;87.33;99119.43;130724;1255;106538;-79
2023/10/30 01:26:02;;;;;;;10.50;5.70;;;;;;;11.85;87.48;99102.84;130726;1254;107524;-79
2023/10/30 01:29:08;;;;;;;9.80;4.80;;;;;;;11.87;87.53;99096.97;130621;1259;107511;-79
2023/10/30 01:32:14;;;;;;;9.70;5.10;;;;;;;11.84;87.45;99094.07;130587;1259;107641;-79
2023/10/30 01:35:20;;;;;;;8.80;5.30;;;;;;;11.82;87.45;99092.56;130592;1254;107755;-79
2023/10/30 01:38:25;;;;;;;11.20;5.60;;;;;;;11.77;87.77;99092.72;130662;1258;107782;-79
2023/10/30 01:41:31;;;;;;;8.40;5.10;;;;;;;11.76;87.78;99091.84;130642;1259;108306;-77
2023/10/30 01:44:53;;;;;;;8.80;5.30;;;;;;;11.76;87.74;99091.64;130569;1260;107924;-76
2023/10/30 01:47:58;;;;;;;13.50;5.80;;;;;;;11.73;87.58;99089.51;130639;1254;108678;-76
2023/10/30 01:51:06;;;;;;;10.20;5.90;;;;;;;11.69;87.75;99095.05;130730;1259;107712;-78
2023/10/30 01:54:12;;;;;;;11.90;6.10;;;;;;;11.61;87.68;99101.70;130727;1256;107809;-77
2023/10/30 01:57:21;;;;;;;11.50;5.70;;;;;;;11.53;87.88;99111.70;130686;1258;108421;-77
2023/10/30 02:00:28;;;;;;;9.40;5.40;;;;;;;11.48;87.76;99113.23;130648;1259;106003;-76
2023/10/30 02:03:35;;;;;;;9.30;5.20;;;;;;;11.46;87.92;99113.65;130553;1259;107764;-76
2023/10/30 02:06:41;;;;;;;9.30;5.40;;;;;;;11.46;87.95;99112.50;130605;1260;106777;-76
2023/10/30 02:09:47;;;;;;;12.20;5.60;;;;;;;11.43;87.83;99108.72;130602;1262;108668;-78
2023/10/30 02:12:53;;;;;;;9.80;5.30;;;;;;;11.38;87.85;99113.33;130569;1259;107447;-79
2023/10/30 02:15:58;;;;;;;10.10;4.70;;;;;;;11.33;88.16;99115.71;130598;1258;107031;-80
2023/10/30 02:19:08;;;;;;;9.30;6.00;;;;;;;11.32;88.39;99115.16;130617;1257;108095;-79
2023/10/30 02:22:13;;;;;;;9.80;6.00;;;;;;;11.36;88.22;99109.30;130607;1259;106481;-76
2023/10/30 02:25:22;;;;;;;8.10;5.40;;;;;;;11.41;88.23;99114.41;130569;1259;106511;-79
2023/10/30 02:28:28;;;;;;;10.80;5.80;;;;;;;11.46;88.33;99122.58;130636;1259;106833;-79
2023/10/30 02:31:33;;;;;;;9.20;5.50;;;;;;;11.49;88.48;99115.78;130491;1259;108653;-77
2023/10/30 02:34:42;;;;;;;8.30;5.00;;;;;;;11.51;88.28;99111.12;130598;1259;108596;-77
2023/10/30 02:37:48;;;;;;;9.70;5.60;;;;;;;11.54;88.68;99107.23;130548;1256;106819;-77
2023/10/30 02:40:54;;;;;;;8.90;5.60;;;;;;;11.56;88.52;99107.25;130568;1259;108189;-79
2023/10/30 02:44:00;;;;;;;11.30;5.80;;;;;;;11.61;88.62;99105.83;130665;1254;106560;-77
2023/10/30 02:47:06;;;;;;;9.20;5.60;;;;;;;11.64;88.67;99100.96;130587;1254;107593;-77
2023/10/30 02:50:13;;;;;;;9.10;5.90;;;;;;;11.63;88.46;99099.27;130610;1256;106358;-77
2023/10/30 02:53:18;;;;;;;10.60;5.40;;;;;;;11.60;88.64;99093.48;130783;1256;107144;-77
2023/10/30 02:56:24;;;;;;;9.00;5.60;;;;;;;11.57;88.56;99089.70;130551;1260;107473;-77
2023/10/30 02:59:30;;;;;;;9.00;4.90;;;;;;;11.57;88.66;99084.39;130641;1259;107708;-77
2023/10/30 03:02:36;;;;;;;8.50;5.20;;;;;;;11.57;88.62;99077.05;130666;1256;107402;-77
2023/10/30 03:05:43;;;;;;;11.50;5.30;;;;;;;11.56;88.75;99092.52;130596;1259;108743;-77
2023/10/30 03:08:49;;;;;;;8.50;5.50;;;;;;;11.53;88.81;99098.95;130649;1259;106736;-78
2023/10/30 03:11:54;;;;;;;8.00;5.10;;;;;;;11.48;88.93;99088.16;130645;1259;106924;-77
2023/10/30 03:15:00;;;;;;;7.40;4.80;;;;;;;11.43;88.83;99088.42;130533;1261;107136;-77
2023/10/30 03:18:06;;;;;;;8.40;5.40;;;;;;;11.39;88.89;99076.75;130620;1259;107770;-77
2023/10/30 03:21:11;;;;;;;8.60;5.50;;;;;;;11.37;89.30;99075.52;130629;1258;107544;-77
2023/10/30 03:24:17;;;;;;;9.20;5.70;;;;;;;11.37;89.24;99075.70;130573;1259;107763;-78
2023/10/30 03:27:23;;;;;;;10.80;6.00;;;;;;;11.37;88.99;99070.08;130829;1256;108372;-77
2023/10/30 03:30:28;;;;;;;8.60;5.60;;;;;;;11.34;89.19;99074.52;130517;1261;107473;-75
2023/10/30 03:33:34;;;;;;;9.60;5.50;;;;;;;11.30;89.12;99084.28;130600;1259;107203;-74
2023/10/30 03:36:39;;;;;;;10.20;5.30;;;;;;;11.31;89.53;99080.27;130595;1259;107055;-75
2023/10/30 03:39:45;;;;;;;10.20;5.20;;;;;;;11.33;89.45;99080.51;130881;1256;106849;-76
2023/10/30 03:42:51;;;;;;;9.80;6.00;;;;;;;11.36;89.58;99074.42;130598;1254;107778;-74
2023/10/30 03:45:56;;;;;;;9.50;5.30;;;;;;;11.37;89.70;99070.38;130645;1258;108256;-73
2023/10/30 03:49:02;;;;;;;9.70;5.50;;;;;;;11.35;89.61;99079.33;130581;1256;106414;-73
2023/10/30 03:52:08;;;;;;;7.70;5.10;;;;;;;11.33;89.34;99079.93;130620;1259;107727;-73
2023/10/30 03:55:13;;;;;;;8.90;5.30;;;;;;;11.32;89.54;99083.65;130601;1259;106563;-73
2023/10/30 03:58:19;;;;;;;10.10;5.50;;;;;;;11.28;89.42;99084.30;130687;1256;106551;-73
2023/10/30 04:01:24;;;;;;;8.40;5.10;;;;;;;11.25;89.57;99098.53;130706;1256;107916;-74
2023/10/30 04:04:30;;;;;;;9.30;5.40;;;;;;;11.23;89.58;99101.16;130688;1259;108791;-74
2023/10/30 04:07:36;;;;;;;10.60;6.10;;;;;;;11.17;89.70;99104.36;130651;1259;108191;-73
2023/10/30 04:10:41;;;;;;;10.30;5.70;;;;;;;11.12;89.62;99101.96;130605;1256;108871;-73
2023/10/30 04:13:47;;;;;;;7.80;5.00;;;;;;;11.07;89.89;99093.23;130580;1259;106721;-73
2023/10/30 04:16:52;;;;;;;7.50;5.00;;;;;;;11.05;89.80;99096.39;130669;1259;108601;-74
2023/10/30 04:19:58;;;;;;;9.20;5.50;;;;;;;11.03;90.09;99107.79;130603;1257;107764;-74
2023/10/30 04:23:03;;;;;;;9.40;5.80;;;;;;;11.01;89.80;99117.87;130676;1259;106564;-73
2023/10/30 04:26:09;;;;;;;9.30;5.20;;;;;;;10.96;90.16;99109.48;130649;1256;107765;-74
2023/10/30 04:29:14;;;;;;;7.40;5.00;;;;;;;10.93;90.15;99114.88;130756;1259;108680;-74
2023/10/30 04:32:21;;;;;;;8.70;5.00;;;;;;;10.90;90.17;99114.45;130684;1255;106104;-73
2023/10/30 04:35:26;;;;;;;7.70;5.00;;;;;;;10.90;90.13;99116.44;130654;1256;106821;-73
2023/10/30 04:38:33;;;;;;;8.50;5.30;;;;;;;10.89;90.10;99115.48;130722;1259;107753;-73
2023/10/30 04:41:39;;;;;;;9.60;5.60;;;;;;;10.88;90.43;99101.39;130678;1257;106872;-73
2023/10/30 04:44:44;;;;;;;9.20;4.90;;;;;;;10.85;90.44;99103.19;130620;1259;108380;-73
2023/10/30 04:47:50;;;;;;;9.30;5.30;;;;;;;10.82;90.45;99116.94;130704;1255;106823;-73
2023/10/30 04:50:55;;;;;;;8.40;5.40;;;;;;;10.81;90.42;99138.56;130653;1257;107535;-74
2023/10/30 04:54:01;;;;;;;9.70;5.30;;;;;;;10.83;90.42;99148.32;130702;1259;106175;-73
2023/10/30 04:57:07;;;;;;;7.90;5.10;;;;;;;10.86;90.77;99140.27;130724;1259;106939;-73
2023/10/30 05:00:14;;;;;;;6.60;5.20;;;;;;;10.90;91.11;99138.54;130665;1259;108606;-75
2023/10/30 05:03:20;;;;;;;10.40;5.30;;;;;;;10.93;91.16;99140.15;130717;1266;108705;-73
2023/10/30 05:06:26;;;;;;;8.40;5.10;;;;;;;10.94;91.35;99138.56;130543;1259;107792;-73
2023/10/30 05:09:32;;;;;;;10.70;4.90;;;;;;;10.96;91.38;99132.67;130603;1257;108673;-73
2023/10/30 05:12:37;;;;;;;8.60;5.30;;;;;;;10.99;91.49;99133.20;130660;1259;106508;-73
2023/10/30 05:15:43;;;;;;;7.80;5.30;;;;;;;11.02;91.36;99136.94;130691;1257;108363;-72
2023/10/30 05:18:50;;;;;;;11.70;7.10;;;;;;;11.02;91.23;99140.52;130512;1254;106338;-73
2023/10/30 05:21:55;;;;;;;7.90;5.30;;;;;;;10.99;91.41;99142.77;130558;1259;106737;-73
2023/10/30 05:25:02;;;;;;;7.30;5.00;;;;;;;10.97;91.34;99158.30;130590;1259;108429;-74
2023/10/30 05:28:08;;;;;;;7.10;4.80;;;;;;;10.96;91.16;99154.35;130730;1259;105760;-75
2023/10/30 05:31:14;;;;;;;8.70;5.10;;;;;;;10.97;91.53;99155.07;130639;1258;106876;-74
2023/10/30 05:34:19;;;;;;;8.60;5.20;;;;;;;10.99;91.50;99151.89;130679;1259;108323;-74
2023/10/30 05:37:25;;;;;;;8.80;5.70;;;;;;;10.99;91.58;99155.39;130613;1259;107652;-74
2023/10/30 05:40:30;;;;;;;7.10;5.20;;;;;;;10.97;91.45;99165.61;130775;1257;105919;-76
2023/10/30 05:43:36;;;;;;;8.60;5.80;;;;;;;10.95;91.63;99176.38;130600;1259;108547;-75
2023/10/30 05:46:41;;;;;;;10.20;5.00;;;;;;;10.95;91.35;99174.51;130590;1259;106968;-74
2023/10/30 05:49:47;;;;;;;8.90;5.00;;;;;;;10.98;91.71;99184.70;130578;1259;108443;-74
2023/10/30 05:52:53;;;;;;;9.00;4.80;;;;;;;11.02;91.58;99191.73;130588;1261;108443;-76
2023/10/30 05:55:58;;;;;;;9.60;5.10;;;;;;;11.05;91.52;99188.72;130661;1259;107717;-76
2023/10/30 05:59:04;;;;;;;8.20;5.30;;;;;;;11.06;91.39;99191.32;130925;1254;107532;-75
2023/10/30 06:02:09;;;;;;;7.80;4.50;;;;;;;11.06;91.55;99201.77;131666;1256;107479;-75
2023/10/30 06:05:16;;;;;;;7.00;4.50;;;;;;;11.09;91.88;99209.97;130665;1254;109358;-75
2023/10/30 06:08:23;;;;;;;7.30;5.00;;;;;;;11.13;91.72;99216.65;130717;1256;107618;-74
2023/10/30 06:11:29;;;;;;;8.60;5.00;;;;;;;11.18;91.85;99218.98;130584;1259;107675;-73
2023/10/30 06:14:35;;;;;;;8.70;4.80;;;;;;;11.23;92.01;99223.65;131533;1254;106623;-75
2023/10/30 06:17:40;;;;;;;8.80;5.00;;;;;;;11.24;91.85;99222.95;134852;1254;106751;-79
2023/10/30 06:20:48;;;;;;;8.60;4.40;;;;;;;11.27;91.86;99226.85;134812;1254;107373;-78
2023/10/30 06:23:53;;;;;;;8.90;4.90;;;;;;;11.33;91.98;99229.02;134792;1254;109111;-78
2023/10/30 06:26:59;;;;;;;8.70;5.10;;;;;;;11.40;91.76;99227.98;131158;1255;108342;-77
2023/10/30 06:30:06;;;;;;;8.60;4.70;;;;;;;11.49;91.92;99221.43;130680;1257;106671;-77
2023/10/30 06:33:11;;;;;;;10.40;5.20;;;;;;;11.57;91.72;99226.00;130607;1256;108104;-77
2023/10/30 06:36:17;;;;;;;10.40;4.80;;;;;;;11.61;91.69;99228.15;130488;1259;106695;-77
2023/10/30 06:39:22;;;;;;;7.00;4.50;;;;;;;11.66;91.74;99230.56;130534;1259;108628;-76
2023/10/30 06:42:28;;;;;;;7.60;4.60;;;;;;;11.73;91.84;99232.77;130638;1256;108008;-76
2023/10/30 06:45:34;;;;;;;8.20;4.60;;;;;;;11.79;91.93;99240.05;130546;1259;106707;-76
2023/10/30 06:48:39;;;;;;;8.10;4.50;;;;;;;11.86;91.80;99245.62;130550;1260;107092;-76
2023/10/30 06:51:45;;;;;;;7.60;4.90;;;;;;;11.93;91.81;99250.55;130545;1259;107712;-76
2023/10/30 06:54:50;;;;;;;7.50;4.60;;;;;;;11.98;91.79;99249.30;130570;1254;107604;-76
2023/10/30 06:57:56;;;;;;;6.30;3.90;;;;;;;12.04;91.75;99256.27;130651;1258;106758;-76
2023/10/30 07:01:05;;;;;;;7.10;4.00;;;;;;;12.09;91.78;99256.55;130491;1262;106848;-77
2023/10/30 07:04:11;;;;;;;8.70;5.10;;;;;;;12.17;91.91;99257.59;130553;1259;106824;-76
2023/10/30 07:07:17;;;;;;;8.10;4.90;;;;;;;12.26;91.80;99251.14;130560;1259;107637;-76
2023/10/30 07:10:22;;;;;;;7.60;4.70;;;;;;;12.33;91.73;99267.06;130582;1259;107904;-76
2023/10/30 07:13:28;;;;;;;9.70;5.40;;;;;;;12.39;91.71;99267.52;130550;1257;108044;-76
2023/10/30 07:16:34;;;;;;;8.40;5.00;;;;;;;12.44;91.62;99256.10;130467;1258;108622;-76
2023/10/30 07:19:39;;;;;;;8.30;5.10;;;;;;;12.45;91.70;99261.77;130546;1260;108650;-76
2023/10/30 07:22:45;;;;;;;6.30;4.00;;;;;;;12.50;91.66;99270.95;130454;1259;107735;-75
2023/10/30 07:25:50;;;;;;;6.90;4.30;;;;;;;12.57;91.68;99282.52;130537;1259;107085;-76
2023/10/30 07:28:56;;;;;;;7.00;4.40;;;;;;;12.62;91.64;99287.46;130533;1256;108656;-76
2023/10/30 07:32:01;;;;;;;6.90;4.30;;;;;;;12.65;91.46;99273.58;130585;1259;106411;-75
2023/10/30 07:35:08;;;;;;;9.70;5.00;;;;;;;12.70;91.65;99265.71;130509;1259;107507;-76
2023/10/30 07:38:14;;;;;;;8.80;4.30;;;;;;;12.72;91.42;99268.53;130583;1268;107840;-78
2023/10/30 07:41:19;;;;;;;7.20;4.00;;;;;;;12.75;91.42;99271.41;130516;1257;106582;-77
2023/10/30 07:44:25;;;;;;;6.50;4.10;;;;;;;12.83;91.54;99275.48;130549;1259;106701;-78
2023/10/30 07:47:30;;;;;;;6.10;3.80;;;;;;;12.91;91.41;99275.34;130497;1259;107653;-77
2023/10/30 07:50:37;;;;;;;6.10;3.80;;;;;;;12.99;91.45;99264.34;130595;1259;107666;-78
2023/10/30 07:53:43;;;;;;;5.20;3.70;;;;;;;13.07;91.32;99269.84;130510;1260;107374;-77
2023/10/30 07:56:49;;;;;;;5.10;3.10;;;;;;;13.12;91.31;99268.60;130489;1259;108665;-76
2023/10/30 07:59:54;;;;;;;6.60;3.40;;;;;;;13.16;91.18;99277.61;130466;1259;109577;-76
2023/10/30 08:03:00;;;;;;;5.50;3.40;;;;;;;13.19;91.20;99284.39;130569;1260;106668;-76
2023/10/30 08:06:06;;;;;;;5.30;3.30;;;;;;;13.24;91.20;99288.89;130493;1259;108666;-78
2023/10/30 08:09:12;;;;;;;7.90;3.60;;;;;;;13.30;91.17;99287.97;130535;1259;107628;-75
2023/10/30 08:12:17;;;;;;;5.70;3.50;;;;;;;13.35;90.97;99292.75;130596;1258;106617;-76
2023/10/30 08:15:23;;;;;;;5.80;3.50;;;;;;;13.37;91.02;99298.05;130487;1256;107504;-76
2023/10/30 08:18:30;;;;;;;4.10;2.80;;;;;;;13.38;91.12;99302.26;130466;1259;107242;-76
2023/10/30 08:21:35;;;;;;;6.50;4.20;;;;;;;13.41;91.10;99302.03;130577;1259;107682;-76
2023/10/30 08:24:41;;;;;;;5.30;3.40;;;;;;;13.47;90.98;99314.81;130504;1259;108374;-76
2023/10/30 08:27:46;;;;;;;6.70;4.10;;;;;;;13.54;90.83;99307.11;130532;1259;108403;-76
2023/10/30 08:30:52;;;;;;;6.00;3.90;;;;;;;13.60;90.80;99288.60;130539;1259;106944;-76
2023/10/30 08:34:00;;;;;;;6.80;3.90;;;;;;;13.67;90.60;99286.16;130515;1259;107757;-76
2023/10/30 08:37:06;;;;;;;4.70;3.40;;;;;;;13.72;90.39;99285.33;130514;1257;107787;-76
2023/10/30 08:40:14;;;;;;;7.40;3.60;;;;;;;13.76;90.49;99278.89;130511;1259;105752;-76
2023/10/30 08:43:19;;;;;;;4.70;2.80;;;;;;;13.85;90.63;99284.33;130621;1259;106240;-76
2023/10/30 08:46:25;;;;;;;6.70;4.00;;;;;;;14.00;90.62;99291.62;130511;1259;108419;-76
2023/10/30 08:49:32;;;;;;;5.90;3.10;;;;;;;14.15;90.34;99311.05;130564;1257;109308;-76
2023/10/30 08:52:39;;;;;;;6.30;3.70;;;;;;;14.31;90.31;99334.40;130613;1254;107692;-76
2023/10/30 08:55:45;;;;;;;5.30;3.40;;;;;;;14.47;90.04;99349.70;130540;1257;106940;-76
2023/10/30 08:58:50;;;;;;;4.30;3.00;;;;;;;14.62;90.09;99352.39;130545;1259;106610;-76
2023/10/30 09:01:56;;;;;;;6.00;3.00;;;;;;;14.78;89.83;99347.85;130523;1259;106515;-76
2023/10/30 09:05:03;;;;;;;3.90;2.80;;;;;;;14.91;89.33;99351.06;130592;1259;108379;-76
2023/10/30 09:08:08;;;;;;;4.70;2.50;;;;;;;15.06;89.50;99349.98;130571;1270;107898;-76
2023/10/30 09:11:14;;;;;;;3.20;2.50;;;;;;;15.20;89.35;99368.64;130540;1255;106920;-76
2023/10/30 09:14:19;;;;;;;5.20;2.80;;;;;;;15.30;89.08;99369.20;130620;1257;106635;-75
2023/10/30 09:17:25;;;;;;;4.60;2.40;;;;;;;15.36;88.28;99365.02;130469;1259;107208;-76
2023/10/30 09:20:31;;;;;;;3.60;2.40;;;;;;;15.44;88.57;99370.65;130629;1259;107221;-76
2023/10/30 09:23:36;;;;;;;3.90;2.40;;;;;;;15.49;88.59;99369.69;130583;1259;107086;-76
2023/10/30 09:26:42;;;;;;;3.50;2.00;;;;;;;15.56;88.28;99371.42;130588;1268;109308;-76
2023/10/30 09:29:48;;;;;;;4.00;1.90;;;;;;;15.57;87.20;99370.48;130575;1257;107029;-76
2023/10/30 09:32:53;;;;;;;4.60;2.20;;;;;;;15.60;87.57;99369.20;130515;1256;107939;-76
2023/10/30 09:35:59;;;;;;;4.10;2.30;;;;;;;15.66;87.42;99368.86;130545;1260;108532;-77
2023/10/30 09:39:04;;;;;;;4.10;2.40;;;;;;;15.73;87.44;99366.17;130659;1259;106978;-76
2023/10/30 09:42:10;;;;;;;4.50;2.50;;;;;;;15.76;86.25;99370.21;130542;1259;105933;-76
2023/10/30 09:45:18;;;;;;;3.20;2.10;;;;;;;15.77;86.68;99378.61;130591;1256;109383;-76
2023/10/30 09:48:25;;;;;;;3.40;2.30;;;;;;;15.79;86.58;99376.70;130581;1257;107955;-76
2023/10/30 09:51:31;;;;;;;3.10;2.30;;;;;;;15.79;86.10;99387.54;130605;1257;106546;-76
2023/10/30 09:54:38;;;;;;;3.50;2.00;;;;;;;15.79;86.08;99394.63;130609;1259;106287;-76
2023/10/30 09:57:44;;;;;;;3.10;2.20;;;;;;;15.78;86.07;99398.00;130680;1259;107706;-76
2023/10/30 10:00:50;;;;;;;10.00;3.00;;;;;;;15.78;86.05;99393.88;130514;1259;106736;-76
2023/10/30 10:03:56;;;;;;;2.60;2.00;;;;;;;15.76;85.77;99386.43;130582;1262;106516;-77
2023/10/30 10:07:02;;;;;;;3.80;1.80;;;;;;;15.75;85.86;99390.48;130512;1258;108675;-76
2023/10/30 10:10:09;;;;;;;3.20;2.00;;;;;;;15.79;85.68;99393.95;130647;1260;107713;-77
2023/10/30 10:13:15;;;;;;;3.30;1.90;;;;;;;15.82;85.41;99393.75;130626;1257;107390;-76
2023/10/30 10:16:29;;;;;;;4.10;2.30;;;;;;;15.85;85.10;99396.27;130598;1259;107704;-76
2023/10/30 10:19:35;;;;;;;4.30;2.20;;;;;;;15.86;84.92;99389.35;130671;1259;108592;-79
2023/10/30 10:22:41;;;;;;;4.20;2.30;;;;;;;15.86;84.99;99374.29;130619;1259;107817;-76
2023/10/30 10:25:56;;;;;;;4.20;2.10;;;;;;;15.85;84.95;99366.84;130554;1259;108005;-76
2023/10/30 10:29:01;;;;;;;2.80;2.20;;;;;;;15.82;84.57;99367.21;130614;1268;107559;-77
2023/10/30 10:32:08;;;;;;;4.10;2.20;;;;;;;15.77;84.58;99362.59;130502;1259;107555;-77
2023/10/30 10:35:14;;;;;;;4.20;1.90;;;;;;;15.69;83.72;99363.10;130604;1259;107780;-77
2023/10/30 10:38:21;;;;;;;3.60;1.90;;;;;;;15.63;83.93;99360.13;130537;1257;108701;-76
2023/10/30 10:41:27;;;;;;;4.40;2.00;;;;;;;15.57;83.92;99358.94;130533;1257;107416;-76
2023/10/30 10:44:34;;;;;;;4.10;2.30;;;;;;;15.53;83.30;99366.63;130340;1256;276053;-77
2023/10/30 10:47:39;;;;;;;6.00;2.30;;;;;;;15.51;83.11;99361.40;130618;1257;106279;-77
2023/10/30 10:50:46;;;;;;;3.30;1.90;;;;;;;15.52;83.20;99359.83;130584;1268;107558;-76
2023/10/30 10:53:52;;;;;;;3.00;1.80;;;;;;;15.54;83.31;99364.02;130586;1259;108754;-76
2023/10/30 10:57:00;;;;;;;3.10;1.70;;;;;;;15.56;82.87;99358.23;130561;1259;107715;-77
2023/10/30 11:00:09;;;;;;;5.90;2.90;;;;;;;15.56;82.53;99349.58;130599;1259;107026;-76
2023/10/30 11:03:15;;;;;;;6.40;2.30;;;;;;;15.57;82.46;99346.57;130610;1259;107733;-77
2023/10/30 11:06:25;;;;;;;3.80;2.20;;;;;;;15.57;80.71;99350.16;130554;1257;107390;-77
2023/10/30 11:09:40;;;;;;;4.70;1.90;;;;;;;15.56;81.69;99352.48;130542;1259;107301;-76
2023/10/30 11:12:57;;;;;;;3.10;1.80;;;;;;;15.58;82.06;99350.95;130530;1259;108752;-76
2023/10/30 11:16:11;;;;;;;3.60;1.70;;;;;;;15.59;81.57;99346.72;130597;1259;106875;-77
2023/10/30 11:19:21;;;;;;;2.90;1.60;;;;;;;15.59;81.95;99348.17;130554;1267;107177;-76
2023/10/30 11:22:41;;;;;;;4.10;2.00;;;;;;;15.62;81.92;99353.31;130573;1260;108361;-76
2023/10/30 11:25:53;;;;;;;2.30;1.90;;;;;;;15.66;81.40;99352.23;130510;1268;108602;-77
2023/10/30 11:28:59;;;;;;;2.60;1.70;;;;;;;15.70;81.37;99349.95;130586;1256;108314;-77
2023/10/30 11:32:08;;;;;;;4.50;1.80;;;;;;;15.77;81.35;99341.27;130538;1259;106759;-77
2023/10/30 11:35:14;;;;;;;3.00;2.00;;;;;;;15.82;81.54;99328.22;130595;1259;107273;-76
2023/10/30 11:38:19;;;;;;;3.70;2.10;;;;;;;15.86;81.37;99326.79;130581;1259;106636;-76
2023/10/30 11:41:26;;;;;;;4.90;1.90;;;;;;;15.88;81.37;99322.80;130521;1268;108142;-79
2023/10/30 11:44:32;;;;;;;4.20;1.80;;;;;;;15.89;81.32;99325.23;130606;1259;107975;-78
2023/10/30 11:47:38;;;;;;;3.00;1.80;;;;;;;15.90;81.21;99323.55;130532;1263;108138;-77
2023/10/30 11:50:48;;;;;;;3.30;1.80;;;;;;;15.90;81.19;99330.33;130493;1258;107757;-78
2023/10/30 11:53:53;;;;;;;3.00;1.70;;;;;;;15.91;81.22;99329.46;130620;1268;107863;-78
2023/10/30 11:57:00;;;;;;;3.40;1.70;;;;;;;15.89;80.74;99324.29;130552;1260;107581;-77
2023/10/30 12:00:09;;;;;;;3.80;1.80;;;;;;;15.89;80.76;99312.05;130551;1270;107450;-78
2023/10/30 12:03:15;;;;;;;4.00;1.40;;;;;;;15.88;80.86;99312.36;130544;1257;107983;-78
2023/10/30 12:06:20;;;;;;;4.40;2.10;;;;;;;15.89;80.67;99305.45;130550;1259;106802;-78
2023/10/30 12:09:26;;;;;;;3.10;1.50;;;;;;;15.92;80.44;99301.23;130553;1255;107705;-78
2023/10/30 12:12:32;;;;;;;4.60;2.60;;;;;;;15.96;80.53;99300.02;130607;1267;107854;-77
2023/10/30 12:15:38;;;;;;;5.50;3.00;;;;;;;16.02;80.57;99294.62;130597;1259;107823;-78
2023/10/30 12:18:44;;;;;;;2.80;1.70;;;;;;;16.05;80.31;99294.15;130487;1259;107771;-78
2023/10/30 12:21:50;;;;;;;3.30;2.10;;;;;;;16.06;80.16;99293.48;130527;1259;107770;-77
2023/10/30 12:24:58;;;;;;;2.90;2.30;;;;;;;16.07;80.27;99287.64;130665;1260;108277;-78
2023/10/30 12:28:05;;;;;;;2.60;1.90;;;;;;;16.08;80.15;99275.80;130528;1259;107991;-78
2023/10/30 12:31:22;;;;;;;2.60;1.60;;;;;;;16.08;80.01;99271.54;130535;1267;107555;-78
2023/10/30 12:34:28;;;;;;;4.00;1.50;;;;;;;16.06;79.85;99273.36;130555;1259;106923;-77
2023/10/30 12:37:33;;;;;;;4.20;2.00;;;;;;;16.05;79.83;99277.34;130552;1268;107902;-77
2023/10/30 12:40:44;;;;;;;4.50;2.10;;;;;;;16.03;79.72;99280.32;130587;1267;108677;-77
2023/10/30 12:43:50;;;;;;;3.40;1.90;;;;;;;16.01;79.83;99280.52;130673;1260;107894;-78
2023/10/30 12:46:56;;;;;;;3.10;1.90;;;;;;;16.00;79.81;99281.75;130487;1254;108357;-78
2023/10/30 12:50:01;;;;;;;3.30;1.50;;;;;;;15.98;79.67;99284.89;130528;1260;106574;-78
2023/10/30 12:53:07;;;;;;;4.60;1.80;;;;;;;15.96;79.54;99290.23;130545;1260;107740;-78
2023/10/30 12:56:13;;;;;;;4.40;1.60;;;;;;;15.97;79.64;99291.73;130533;1259;108741;-78
2023/10/30 12:59:18;;;;;;;5.30;1.90;;;;;;;16.01;79.84;99282.61;130583;1254;107045;-78
2023/10/30 13:02:24;;;;;;;5.70;2.30;;;;;;;16.05;79.56;99278.96;130588;1267;107077;-78
2023/10/30 13:05:29;;;;;;;5.20;3.10;;;;;;;16.05;79.25;99284.09;130497;1268;107094;-78
2023/10/30 13:08:35;;;;;;;4.20;2.50;;;;;;;16.03;79.27;99283.43;130580;1258;106711;-78
2023/10/30 13:11:41;;;;;;;3.80;2.40;;;;;;;16.01;79.42;99282.66;130623;1260;108569;-78
2023/10/30 13:14:46;;;;;;;6.80;4.30;;;;;;;15.99;79.27;99283.89;130595;1259;107168;-78
2023/10/30 13:17:52;;;;;;;5.20;2.70;;;;;;;15.97;79.26;99285.27;130646;1258;107769;-78
2023/10/30 13:20:58;;;;;;;4.50;2.60;;;;;;;15.94;79.31;99288.34;130585;1258;107838;-78
2023/10/30 13:24:03;;;;;;;3.90;2.20;;;;;;;15.89;79.29;99300.45;130568;1267;107690;-78
2023/10/30 13:27:11;;;;;;;4.50;1.90;;;;;;;15.84;79.27;99314.69;130579;1259;107698;-76
2023/10/30 13:30:17;;;;;;;4.20;2.30;;;;;;;15.78;79.25;99319.42;130706;1259;108682;-77
2023/10/30 13:33:22;;;;;;;2.50;2.10;;;;;;;15.72;79.37;99311.42;130526;1260;106763;-77
2023/10/30 13:36:28;;;;;;;5.10;2.20;;;;;;;15.66;79.47;99304.36;130583;1268;107739;-79
2023/10/30 13:39:35;;;;;;;4.10;2.10;;;;;;;15.62;79.61;99305.36;130578;1267;108677;-77
2023/10/30 13:42:41;;;;;;;3.60;2.20;;;;;;;15.61;79.57;99303.73;130560;1259;107619;-78
2023/10/30 13:45:46;;;;;;;3.80;2.10;;;;;;;15.61;79.61;99308.59;130568;1260;107686;-76
2023/10/30 13:48:54;;;;;;;3.90;2.40;;;;;;;15.62;79.53;99314.42;130556;1257;107689;-76
2023/10/30 13:52:00;;;;;;;3.50;2.20;;;;;;;15.60;79.79;99308.02;130560;1260;107569;-76
2023/10/30 13:55:06;;;;;;;4.30;2.80;;;;;;;15.57;79.61;99315.46;130511;1260;106902;-75
2023/10/30 13:58:11;;;;;;;5.10;4.40;;;;;;;15.52;79.61;99320.15;130586;1260;106249;-75
2023/10/30 14:01:17;;;;;;;8.10;7.20;;;;;;;15.47;79.86;99314.05;130616;1259;106843;-75
2023/10/30 14:04:22;;;;;;;7.50;5.30;;;;;;;15.42;79.97;99312.86;130566;1259;108493;-75
2023/10/30 14:07:28;;;;;;;7.90;6.60;;;;;;;15.39;80.11;99306.09;130569;1260;106406;-75
2023/10/30 14:10:34;;;;;;;6.50;5.00;;;;;;;15.36;80.20;99303.35;130573;1268;107773;-75
2023/10/30 14:13:40;;;;;;;6.40;5.50;;;;;;;15.33;80.51;99303.98;130573;1260;107646;-75
2023/10/30 14:16:45;;;;;;;6.50;4.20;;;;;;;15.33;80.67;99301.45;130552;1260;107738;-75